Time;durP1;ratioP1;P1;durP2;ratioP2;P2;SDS_P1;SDS_P2;PMS_P1;PMS_P2;Temp;Humidity;BMP_temperature;BMP_pressure;BME280_temperature;BME280_humidity;BME280_pressure;Samples;Min_cycle;Max_cycle;Signal;HPM_P1;HPM_P2
2020/12/08 00:01:45;;;;;;;21.80;14.35;;;;;;;4.18;80.50;99106.41;5045468;28;20055;-77
2020/12/08 00:04:11;;;;;;;20.38;14.38;;;;;;;4.15;79.56;99109.16;5042434;28;20493;-78
2020/12/08 00:06:38;;;;;;;25.92;14.73;;;;;;;4.09;80.13;99101.56;5040885;28;20096;-78
2020/12/08 00:09:05;;;;;;;22.30;13.68;;;;;;;4.09;80.51;99094.53;5043155;28;20576;-77
2020/12/08 00:11:31;;;;;;;23.35;13.80;;;;;;;4.12;79.32;99096.19;5044421;28;20057;-79
2020/12/08 00:13:58;;;;;;;21.27;13.35;;;;;;;4.05;79.67;99094.75;5042540;28;20045;-79
2020/12/08 00:16:24;;;;;;;20.20;13.00;;;;;;;4.03;79.50;99097.41;5040161;28;20497;-76
2020/12/08 00:18:50;;;;;;;20.30;13.05;;;;;;;3.96;79.21;99092.47;5053811;28;20170;-77
2020/12/08 00:21:17;;;;;;;22.63;13.55;;;;;;;3.94;79.50;99096.94;5055028;28;20096;-78
2020/12/08 00:23:44;;;;;;;21.02;13.98;;;;;;;3.86;79.97;99092.88;5066414;28;20033;-78
2020/12/08 00:26:13;;;;;;;21.50;14.05;;;;;;;3.85;80.04;99092.94;5043704;28;20052;-78
2020/12/08 00:28:41;;;;;;;22.25;13.95;;;;;;;3.86;80.31;99098.09;5048936;28;20408;-80
2020/12/08 00:31:08;;;;;;;21.98;13.65;;;;;;;3.83;79.93;99098.22;5043617;28;20080;-78
2020/12/08 00:33:34;;;;;;;21.02;13.45;;;;;;;3.75;79.21;99089.84;5042112;28;20049;-79
2020/12/08 00:36:02;;;;;;;23.05;13.35;;;;;;;3.70;80.11;99091.78;5043602;28;20053;-79
2020/12/08 00:38:29;;;;;;;19.58;12.63;;;;;;;3.63;80.57;99087.69;5044469;28;20552;-79
2020/12/08 00:40:55;;;;;;;19.10;13.30;;;;;;;3.59;80.03;99088.75;5043101;28;20403;-80
2020/12/08 00:43:21;;;;;;;20.30;13.23;;;;;;;3.52;79.95;99084.66;5041794;28;20053;-77
2020/12/08 00:45:48;;;;;;;18.65;12.63;;;;;;;3.45;80.05;99080.59;5041580;28;20063;-77
2020/12/08 00:48:14;;;;;;;18.42;11.70;;;;;;;3.41;80.43;99087.69;5042693;28;20046;-78
2020/12/08 00:50:40;;;;;;;16.77;11.52;;;;;;;3.38;80.25;99089.56;5045059;28;20045;-77
2020/12/08 00:53:07;;;;;;;17.35;11.45;;;;;;;3.32;80.66;99085.41;5043275;28;20067;-80
2020/12/08 00:55:33;;;;;;;19.52;12.60;;;;;;;3.32;80.79;99079.31;5045195;28;20049;-77
2020/12/08 00:57:59;;;;;;;19.05;12.15;;;;;;;3.28;79.97;99080.38;5043534;28;20440;-77
2020/12/08 01:00:26;;;;;;;18.90;12.73;;;;;;;3.24;80.19;99077.03;5044380;28;20519;-78
2020/12/08 01:02:52;;;;;;;19.52;12.00;;;;;;;3.22;80.39;99077.97;5041981;28;20056;-77
2020/12/08 01:05:19;;;;;;;19.15;12.25;;;;;;;3.17;80.42;99096.47;5043918;28;20139;-77
2020/12/08 01:07:46;;;;;;;18.60;12.25;;;;;;;3.14;81.05;99096.59;5043216;28;20052;-78
2020/12/08 01:10:12;;;;;;;19.73;12.05;;;;;;;3.10;81.10;99088.00;5046004;28;20403;-78
2020/12/08 01:12:39;;;;;;;18.65;12.52;;;;;;;3.07;81.16;99090.72;5043131;28;20041;-78
2020/12/08 01:15:05;;;;;;;19.83;12.75;;;;;;;3.10;81.39;99090.63;5041724;28;20948;-77
2020/12/08 01:17:33;;;;;;;20.40;12.70;;;;;;;3.17;81.45;99101.69;5043888;28;20047;-80
2020/12/08 01:19:59;;;;;;;19.25;11.90;;;;;;;3.26;81.08;99105.75;5045858;28;20049;-77
2020/12/08 01:22:26;;;;;;;17.17;11.95;;;;;;;3.35;80.74;99095.75;5046370;28;20041;-77
2020/12/08 01:24:53;;;;;;;18.40;12.18;;;;;;;3.34;79.81;99088.81;5044670;28;20056;-77
2020/12/08 01:27:19;;;;;;;20.50;12.80;;;;;;;3.39;79.74;99099.13;5044839;28;20131;-77
2020/12/08 01:29:46;;;;;;;17.98;11.70;;;;;;;3.37;79.89;99093.94;5045954;28;20144;-77
2020/12/08 01:32:12;;;;;;;17.88;11.90;;;;;;;3.32;79.08;99092.41;5044832;28;20529;-79
2020/12/08 01:34:38;;;;;;;20.33;12.43;;;;;;;3.27;79.62;99094.38;5042897;28;20124;-76
2020/12/08 01:37:05;;;;;;;19.10;12.20;;;;;;;3.20;79.63;99091.13;5042826;28;20080;-77
2020/12/08 01:39:31;;;;;;;20.13;12.48;;;;;;;3.19;79.75;99099.88;5041078;28;20128;-77
2020/12/08 01:41:58;;;;;;;19.48;12.40;;;;;;;3.12;79.56;99099.28;5044990;28;20041;-77
2020/12/08 01:44:24;;;;;;;21.30;13.70;;;;;;;3.08;80.12;99107.28;5042305;28;20041;-76
2020/12/08 01:46:51;;;;;;;21.50;13.05;;;;;;;3.02;80.60;99097.88;5042407;28;20041;-80
2020/12/08 01:49:18;;;;;;;20.33;13.38;;;;;;;2.95;80.81;99091.19;5043165;28;20374;-76
2020/12/08 01:51:44;;;;;;;17.35;11.73;;;;;;;2.92;81.02;99100.91;5041810;28;20064;-75
2020/12/08 01:54:12;;;;;;;19.25;12.02;;;;;;;2.91;81.25;99105.28;5043385;28;20064;-75
2020/12/08 01:56:39;;;;;;;20.08;11.88;;;;;;;2.86;80.78;99104.59;5041174;28;20049;-79
2020/12/08 01:59:06;;;;;;;19.80;12.80;;;;;;;2.76;81.29;99098.00;5043860;28;20115;-76
2020/12/08 02:01:32;;;;;;;20.38;13.02;;;;;;;2.81;82.11;99103.91;5047651;28;20478;-76
2020/12/08 02:03:59;;;;;;;20.80;13.40;;;;;;;2.81;81.39;99110.00;5047921;28;20049;-78
2020/12/08 02:06:26;;;;;;;22.00;13.20;;;;;;;2.85;81.24;99110.72;5050865;28;20053;-76
2020/12/08 02:08:53;;;;;;;21.50;13.68;;;;;;;2.86;81.72;99099.34;5041861;28;20049;-78
2020/12/08 02:11:20;;;;;;;20.63;13.00;;;;;;;2.90;81.45;99095.72;5052237;28;20061;-77
2020/12/08 02:13:46;;;;;;;20.58;13.13;;;;;;;2.92;80.58;99093.06;5046722;28;20049;-77
2020/12/08 02:16:13;;;;;;;20.20;13.07;;;;;;;2.94;80.47;99089.50;5048593;28;20053;-78
2020/12/08 02:18:40;;;;;;;20.45;12.65;;;;;;;2.92;80.68;99083.47;5041142;28;20049;-76
2020/12/08 02:21:06;;;;;;;19.33;12.93;;;;;;;2.95;80.32;99082.50;5044951;28;20053;-78
2020/12/08 02:23:34;;;;;;;19.88;13.02;;;;;;;3.00;80.61;99088.38;5043449;28;20053;-78
2020/12/08 02:26:04;;;;;;;20.92;13.50;;;;;;;3.01;80.25;99087.47;5037532;28;20056;-77
2020/12/08 02:28:32;;;;;;;22.67;14.00;;;;;;;3.01;80.20;99092.72;5044889;28;20060;-77
2020/12/08 02:30:59;;;;;;;22.08;14.05;;;;;;;3.02;80.11;99090.03;5046911;28;20044;-78
2020/12/08 02:33:30;;;;;;;22.67;13.88;;;;;;;3.00;80.23;99088.38;5044021;28;20136;-77
2020/12/08 02:36:00;;;;;;;20.02;13.07;;;;;;;3.04;80.25;99087.38;5043540;28;20057;-77
2020/12/08 02:38:27;;;;;;;23.80;14.65;;;;;;;2.96;79.90;99081.59;5040540;28;20049;-77
2020/12/08 02:40:54;;;;;;;22.50;14.00;;;;;;;3.03;79.89;99094.38;5043141;28;20041;-77
2020/12/08 02:43:22;;;;;;;25.17;15.20;;;;;;;3.02;80.43;99092.66;5042558;28;20064;-78
2020/12/08 02:45:49;;;;;;;22.17;14.20;;;;;;;3.11;79.37;99097.56;5039577;28;20053;-77
2020/12/08 02:48:17;;;;;;;25.10;15.23;;;;;;;3.12;79.57;99101.03;5043744;28;20361;-78
2020/12/08 02:50:58;;;;;;;24.98;14.52;;;;;;;3.16;79.62;99100.84;5043596;28;20072;-77
2020/12/08 02:53:25;;;;;;;24.10;15.32;;;;;;;3.14;79.46;99102.69;5042112;28;20125;-77
2020/12/08 02:55:51;;;;;;;24.13;15.10;;;;;;;3.12;80.06;99103.66;5042876;28;20063;-78
2020/12/08 02:58:18;;;;;;;22.75;14.45;;;;;;;3.13;79.52;99105.34;5041591;28;20042;-75
2020/12/08 03:00:44;;;;;;;23.95;14.75;;;;;;;3.16;80.06;99106.06;5043134;28;20599;-75
2020/12/08 03:03:10;;;;;;;22.70;14.35;;;;;;;3.22;79.65;99109.38;5046967;28;20052;-77
2020/12/08 03:05:37;;;;;;;25.75;14.85;;;;;;;3.20;79.30;99098.13;5056022;28;20048;-77
2020/12/08 03:08:04;;;;;;;25.00;15.38;;;;;;;3.17;80.16;99096.47;5057355;28;20061;-77
2020/12/08 03:10:30;;;;;;;23.80;15.73;;;;;;;3.19;80.06;99092.03;5037258;28;20063;-76
2020/12/08 03:12:57;;;;;;;26.33;14.77;;;;;;;3.21;79.71;99091.97;5040636;28;20049;-79
2020/12/08 03:15:24;;;;;;;25.27;15.63;;;;;;;3.22;79.66;99085.84;5046825;28;20041;-79
2020/12/08 03:17:51;;;;;;;24.25;14.93;;;;;;;3.24;79.81;99084.00;5043039;28;20049;-79
2020/12/08 03:20:17;;;;;;;23.98;15.43;;;;;;;3.25;79.58;99094.44;5057605;28;20097;-82
2020/12/08 03:22:43;;;;;;;22.63;14.70;;;;;;;3.25;79.81;99089.19;5058441;28;20039;-81
2020/12/08 03:25:10;;;;;;;23.80;15.15;;;;;;;3.28;79.47;99091.69;5060760;28;20109;-82
2020/12/08 03:27:36;;;;;;;24.38;14.93;;;;;;;3.29;79.77;99096.03;5060614;28;20186;-78
2020/12/08 03:30:05;;;;;;;25.45;15.43;;;;;;;3.25;79.22;99098.81;5049115;28;20064;-77
2020/12/08 03:32:32;;;;;;;25.52;15.68;;;;;;;3.26;79.43;99093.50;5053074;28;20076;-77
2020/12/08 03:34:58;;;;;;;24.60;15.45;;;;;;;3.25;79.45;99083.09;5054427;28;20122;-78
2020/12/08 03:37:25;;;;;;;24.65;15.57;;;;;;;3.29;79.24;99084.69;5044649;28;20046;-76
2020/12/08 03:39:51;;;;;;;27.20;16.20;;;;;;;3.27;79.43;99084.75;5048029;28;20060;-79
2020/12/08 03:42:18;;;;;;;23.98;15.25;;;;;;;3.26;79.30;99084.81;5044395;28;20041;-79
2020/12/08 03:44:44;;;;;;;27.23;16.42;;;;;;;3.27;80.02;99079.53;5047913;28;20049;-77
2020/12/08 03:47:12;;;;;;;27.02;16.55;;;;;;;3.29;79.76;99076.84;5046375;28;20131;-78
2020/12/08 03:49:38;;;;;;;24.65;14.40;;;;;;;3.30;79.55;99071.56;5045911;28;20136;-78
2020/12/08 03:52:05;;;;;;;22.50;14.52;;;;;;;3.30;78.90;99066.34;5045204;28;20053;-76
2020/12/08 03:54:31;;;;;;;26.38;15.57;;;;;;;3.30;79.17;99066.34;5046992;28;20477;-80
2020/12/08 03:56:59;;;;;;;26.67;15.55;;;;;;;3.30;79.31;99071.56;5047560;28;20064;-79
2020/12/08 03:59:25;;;;;;;25.48;15.50;;;;;;;3.27;78.62;99063.81;5043459;28;20369;-79
2020/12/08 04:01:52;;;;;;;25.27;15.68;;;;;;;3.31;79.49;99067.16;5042022;28;20047;-80
2020/12/08 04:04:19;;;;;;;26.20;16.08;;;;;;;3.32;80.01;99068.84;5040136;28;20164;-78
2020/12/08 04:06:47;;;;;;;25.27;15.70;;;;;;;3.34;80.16;99062.66;5045851;28;20136;-77
2020/12/08 04:09:14;;;;;;;24.33;15.32;;;;;;;3.39;79.75;99062.50;5044591;28;20056;-76
2020/12/08 04:11:41;;;;;;;25.08;15.95;;;;;;;3.37;79.48;99064.31;5042550;28;20469;-77
2020/12/08 04:14:07;;;;;;;26.48;16.92;;;;;;;3.38;79.81;99064.25;5046700;28;20044;-76
2020/12/08 04:16:36;;;;;;;30.25;17.38;;;;;;;3.37;79.59;99066.94;5043890;28;20349;-77
2020/12/08 04:19:04;;;;;;;26.73;15.80;;;;;;;3.36;79.42;99070.44;5039794;28;20050;-77
2020/12/08 04:21:31;;;;;;;26.25;15.70;;;;;;;3.32;79.88;99068.84;5049974;28;20106;-82
2020/12/08 04:24:00;;;;;;;23.90;15.30;;;;;;;3.36;79.71;99070.44;5048065;28;20077;-78
2020/12/08 04:26:33;;;;;;;29.15;16.83;;;;;;;3.31;79.54;99070.63;5056924;28;20133;-78
2020/12/08 04:29:00;;;;;;;27.15;16.17;;;;;;;3.30;79.71;99066.34;5045128;28;20073;-76
2020/12/08 04:31:27;;;;;;;26.83;17.02;;;;;;;3.28;80.21;99072.53;5047613;28;20056;-79
2020/12/08 04:33:54;;;;;;;28.48;16.48;;;;;;;3.28;79.61;99072.53;5047804;28;20400;-77
2020/12/08 04:36:22;;;;;;;27.75;16.17;;;;;;;3.22;79.90;99077.97;5042281;28;20178;-77
2020/12/08 04:38:49;;;;;;;25.58;16.13;;;;;;;3.17;79.88;99086.84;5042893;28;20056;-79
2020/12/08 04:41:20;;;;;;;25.58;15.95;;;;;;;3.18;80.31;99100.78;5039940;28;20046;-78
2020/12/08 04:43:47;;;;;;;27.00;16.27;;;;;;;3.18;80.95;99096.41;5045842;28;20060;-78
2020/12/08 04:46:17;;;;;;;29.05;17.15;;;;;;;3.20;80.25;99090.25;5048449;28;20433;-78
2020/12/08 04:48:45;;;;;;;26.98;16.35;;;;;;;3.23;80.14;99095.38;5039057;28;20049;-79
2020/12/08 04:51:12;;;;;;;26.73;17.08;;;;;;;3.23;80.48;99098.84;5037718;28;22518;-77
2020/12/08 04:53:39;;;;;;;28.08;16.98;;;;;;;3.23;80.07;99100.63;5043681;28;20132;-82
2020/12/08 04:56:05;;;;;;;28.48;16.25;;;;;;;3.20;80.19;99104.19;5043643;28;20052;-80
2020/12/08 04:58:32;;;;;;;28.23;17.15;;;;;;;3.16;80.44;99098.22;5041136;28;20063;-78
2020/12/08 05:00:59;;;;;;;27.42;16.05;;;;;;;3.23;81.18;99101.47;5043752;28;20709;-76
2020/12/08 05:03:27;;;;;;;29.58;16.63;;;;;;;3.27;80.78;99094.38;5051889;28;20072;-78
2020/12/08 05:05:53;;;;;;;29.05;17.35;;;;;;;3.24;80.56;99087.47;5058832;28;20049;-80
2020/12/08 05:08:20;;;;;;;28.00;17.42;;;;;;;3.21;80.45;99092.81;5062547;28;20055;-79
2020/12/08 05:10:48;;;;;;;29.80;17.17;;;;;;;3.20;80.35;99088.50;5056897;28;20021;-81
2020/12/08 05:13:21;;;;;;;28.58;17.30;;;;;;;3.22;81.05;99093.69;5056059;28;20122;-79
2020/12/08 05:16:04;;;;;;;28.98;17.08;;;;;;;3.23;81.04;99079.69;5060606;28;20109;-79
2020/12/08 05:18:35;;;;;;;31.17;18.25;;;;;;;3.24;80.60;99077.03;5052228;28;20057;-78
2020/12/08 05:21:11;;;;;;;27.15;16.90;;;;;;;3.27;81.01;99081.28;5041238;28;20094;-79
2020/12/08 05:23:46;;;;;;;32.67;18.88;;;;;;;3.25;80.27;99077.88;5046270;28;20124;-79
2020/12/08 05:26:15;;;;;;;28.98;17.80;;;;;;;3.26;80.12;99074.34;5044832;28;20055;-79
2020/12/08 05:28:43;;;;;;;28.20;18.13;;;;;;;3.26;80.60;99074.34;5042287;28;20454;-77
2020/12/08 05:31:10;;;;;;;28.88;17.00;;;;;;;3.26;81.10;99074.34;5048093;28;20052;-81
2020/12/08 05:33:40;;;;;;;30.63;18.33;;;;;;;3.28;80.79;99078.63;5040294;28;20229;-77
2020/12/08 05:36:06;;;;;;;29.92;18.00;;;;;;;3.28;80.87;99083.00;5045892;28;20055;-80
2020/12/08 05:38:35;;;;;;;28.67;17.65;;;;;;;3.28;80.77;99083.00;5041871;28;20056;-80
2020/12/08 05:41:07;;;;;;;28.30;17.23;;;;;;;3.27;81.50;99070.81;5042172;28;20043;-80
2020/12/08 05:43:39;;;;;;;27.52;17.13;;;;;;;3.34;81.39;99077.50;5043695;28;20051;-78
2020/12/08 05:46:10;;;;;;;31.48;18.02;;;;;;;3.35;81.24;99082.69;5040488;28;20055;-80
2020/12/08 05:48:37;;;;;;;29.33;17.48;;;;;;;3.37;81.31;99075.63;5045347;28;20083;-79
2020/12/08 05:51:06;;;;;;;28.67;17.67;;;;;;;3.40;81.70;99080.75;5043133;28;20055;-78
2020/12/08 05:53:34;;;;;;;28.88;16.95;;;;;;;3.36;81.20;99075.69;5043947;28;20072;-79
2020/12/08 05:56:08;;;;;;;28.20;16.73;;;;;;;3.34;81.24;99078.34;5043288;28;20049;-79
2020/12/08 05:58:37;;;;;;;26.10;16.15;;;;;;;3.34;81.67;99080.97;5039456;28;20059;-76
2020/12/08 06:01:08;;;;;;;28.60;17.00;;;;;;;3.36;82.17;99078.31;5041576;28;20045;-81
2020/12/08 06:03:36;;;;;;;29.92;17.63;;;;;;;3.33;81.93;99071.41;5040527;28;20495;-77
2020/12/08 06:06:10;;;;;;;28.60;17.40;;;;;;;3.23;81.74;99058.75;5026861;28;20761;-77
2020/12/08 06:08:43;;;;;;;27.55;17.45;;;;;;;3.29;81.92;99069.00;5040367;28;20037;-80
2020/12/08 06:11:10;;;;;;;27.35;17.20;;;;;;;3.26;81.79;99063.88;5042091;28;20055;-79
2020/12/08 06:13:45;;;;;;;28.17;16.55;;;;;;;3.26;82.11;99069.13;5043133;28;20053;-78
2020/12/08 06:16:21;;;;;;;27.65;16.63;;;;;;;3.28;82.17;99069.91;5041497;28;20104;-80
2020/12/08 06:18:50;;;;;;;28.35;17.02;;;;;;;3.27;82.11;99062.97;5043133;28;20519;-78
2020/12/08 06:21:17;;;;;;;27.55;16.55;;;;;;;3.24;82.36;99065.69;5043466;28;20087;-79
2020/12/08 06:23:45;;;;;;;25.63;16.23;;;;;;;3.16;81.76;99059.00;5045646;28;20094;-79
2020/12/08 06:26:12;;;;;;;25.48;15.68;;;;;;;3.18;81.79;99066.78;5042698;28;20052;-77
2020/12/08 06:28:39;;;;;;;26.02;16.15;;;;;;;3.13;81.92;99066.97;5047285;28;20071;-78
2020/12/08 06:31:07;;;;;;;27.38;16.23;;;;;;;3.11;81.88;99081.00;5039162;28;20057;-78
2020/12/08 06:33:54;;;;;;;29.80;16.48;;;;;;;3.10;82.05;99084.53;5043065;28;20059;-77
2020/12/08 06:36:24;;;;;;;27.10;16.65;;;;;;;3.07;82.13;99084.66;5036908;28;20061;-79
2020/12/08 06:39:05;;;;;;;26.67;16.35;;;;;;;3.01;82.26;99090.94;5037272;28;20052;-77
2020/12/08 06:41:37;;;;;;;25.75;16.00;;;;;;;2.99;82.57;99097.19;5037096;28;20048;-78
2020/12/08 06:44:15;;;;;;;27.50;16.60;;;;;;;3.00;82.40;99089.25;5033790;28;20056;-78
2020/12/08 06:46:58;;;;;;;27.42;16.73;;;;;;;3.00;82.74;99078.78;5037980;28;20483;-81
2020/12/08 06:49:26;;;;;;;26.13;16.52;;;;;;;2.99;82.46;99071.03;5043725;28;20132;-78
2020/12/08 06:51:57;;;;;;;26.48;16.35;;;;;;;3.05;82.55;99073.38;5042862;28;20053;-79
2020/12/08 06:54:24;;;;;;;25.60;16.13;;;;;;;3.04;82.89;99067.31;5042404;28;20053;-79
2020/12/08 06:56:58;;;;;;;27.33;15.75;;;;;;;3.12;82.36;99069.66;5041303;28;20045;-79
2020/12/08 06:59:26;;;;;;;26.20;15.80;;;;;;;3.08;82.08;99062.81;5038448;28;20049;-76
2020/12/08 07:01:54;;;;;;;25.42;15.48;;;;;;;3.10;82.21;99084.53;5042978;28;20067;-79
2020/12/08 07:04:22;;;;;;;24.17;14.05;;;;;;;3.12;82.45;99086.19;5043726;28;20049;-79
2020/12/08 07:06:49;;;;;;;24.83;15.45;;;;;;;3.16;82.10;99098.22;5040497;28;20482;-77
2020/12/08 07:09:16;;;;;;;25.45;15.68;;;;;;;3.19;81.86;99105.09;5039211;28;20049;-78
2020/12/08 07:11:43;;;;;;;26.05;15.85;;;;;;;3.14;81.78;99101.84;5037990;28;20078;-79
2020/12/08 07:14:10;;;;;;;29.88;17.45;;;;;;;3.08;81.68;99102.91;5042185;28;20053;-78
2020/12/08 07:16:37;;;;;;;28.23;16.63;;;;;;;3.09;82.17;99106.38;5043485;28;20037;-78
2020/12/08 07:19:06;;;;;;;27.60;16.38;;;;;;;3.11;82.36;99108.03;5042307;28;20094;-78
2020/12/08 07:21:34;;;;;;;27.17;15.93;;;;;;;3.13;82.61;99100.13;5042226;28;20050;-79
2020/12/08 07:24:06;;;;;;;26.50;15.82;;;;;;;3.17;82.22;99110.41;5040920;28;20106;-79
2020/12/08 07:26:32;;;;;;;25.42;16.10;;;;;;;3.20;81.64;99100.72;5043354;28;20049;-81
2020/12/08 07:28:59;;;;;;;27.25;16.50;;;;;;;3.17;81.64;99113.00;5043331;28;20684;-78
2020/12/08 07:31:32;;;;;;;25.10;15.45;;;;;;;3.13;81.81;99103.59;5040611;28;20387;-77
2020/12/08 07:33:59;;;;;;;28.75;16.52;;;;;;;3.15;81.82;99103.50;5043288;28;20068;-79
2020/12/08 07:36:33;;;;;;;26.00;15.95;;;;;;;3.16;82.05;99105.22;5042497;28;20124;-81
2020/12/08 07:39:02;;;;;;;25.48;15.63;;;;;;;3.21;82.21;99105.91;5045420;28;20060;-78
2020/12/08 07:41:30;;;;;;;25.50;15.45;;;;;;;3.26;81.13;99110.97;5045006;28;20407;-76
2020/12/08 07:43:58;;;;;;;22.73;14.45;;;;;;;3.28;81.13;99111.78;5047249;28;20066;-80
2020/12/08 07:46:27;;;;;;;22.83;14.18;;;;;;;3.27;80.85;99108.31;5040489;28;20053;-77
2020/12/08 07:49:07;;;;;;;26.77;15.60;;;;;;;3.31;80.35;99115.09;5044733;28;20049;-77
2020/12/08 07:51:35;;;;;;;24.42;15.18;;;;;;;3.30;80.08;99116.03;5047238;28;20088;-77
2020/12/08 07:54:05;;;;;;;21.98;14.45;;;;;;;3.29;80.50;99110.88;5039597;28;20045;-77
2020/12/08 07:56:33;;;;;;;24.92;15.00;;;;;;;3.30;80.63;99100.34;5041227;28;20057;-78
2020/12/08 07:59:00;;;;;;;23.75;15.02;;;;;;;3.36;80.65;99109.69;5049647;28;20051;-79
2020/12/08 08:01:27;;;;;;;24.23;15.48;;;;;;;3.34;80.35;99103.66;5039948;28;20071;-80
2020/12/08 08:03:54;;;;;;;24.65;15.57;;;;;;;3.39;80.71;99107.81;5042588;28;20169;-77
2020/12/08 08:06:24;;;;;;;22.95;14.68;;;;;;;3.42;80.58;99117.34;5046868;28;20110;-77
2020/12/08 08:08:51;;;;;;;21.52;13.48;;;;;;;3.41;80.67;99110.38;5044170;28;20188;-77
2020/12/08 08:11:18;;;;;;;22.00;14.40;;;;;;;3.41;81.17;99102.53;5046011;28;20041;-76
2020/12/08 08:13:49;;;;;;;26.20;15.77;;;;;;;3.42;81.26;99112.94;5041226;28;20115;-76
2020/12/08 08:16:16;;;;;;;23.13;15.13;;;;;;;3.41;81.54;99118.25;5049875;28;20053;-79
2020/12/08 08:18:44;;;;;;;26.70;15.13;;;;;;;3.42;81.43;99125.19;5066264;28;20052;-81
2020/12/08 08:21:13;;;;;;;25.77;15.93;;;;;;;3.47;81.84;99120.59;5066510;28;20079;-77
2020/12/08 08:23:39;;;;;;;26.52;15.93;;;;;;;3.48;81.26;99127.53;5054993;28;20406;-78
2020/12/08 08:26:07;;;;;;;23.88;15.40;;;;;;;3.52;81.25;99124.75;5046230;28;20045;-77
2020/12/08 08:28:34;;;;;;;24.60;14.63;;;;;;;3.59;81.32;99124.53;5044258;28;20142;-77
2020/12/08 08:31:01;;;;;;;23.70;15.30;;;;;;;3.70;81.25;99140.66;5042377;28;20055;-77
2020/12/08 08:33:29;;;;;;;23.05;14.93;;;;;;;3.79;80.88;99143.75;5045770;28;20100;-77
2020/12/08 08:35:57;;;;;;;27.45;16.02;;;;;;;3.79;79.89;99149.00;5044321;28;20419;-77
2020/12/08 08:38:26;;;;;;;23.60;15.02;;;;;;;3.84;79.92;99149.69;5045765;28;20056;-78
2020/12/08 08:40:57;;;;;;;20.20;14.40;;;;;;;3.96;79.97;99150.09;5045333;28;20045;-77
2020/12/08 08:43:24;;;;;;;;;;;;;;;4.08;79.86;99155.72;5061378;28;20053;-76
2020/12/08 08:45:51;;;;;;;23.33;14.50;;;;;;;4.15;78.97;99161.56;5049471;28;19921;-77
2020/12/08 08:48:18;;;;;;;21.30;13.57;;;;;;;4.18;78.51;99162.28;5052778;28;20140;-77
2020/12/08 08:50:44;;;;;;;21.13;14.57;;;;;;;4.20;78.85;99159.59;5046543;28;20041;-77
2020/12/08 08:53:10;;;;;;;20.90;13.95;;;;;;;4.27;79.05;99153.19;5055373;28;20124;-77
2020/12/08 08:55:37;;;;;;;23.38;14.38;;;;;;;4.34;78.24;99154.66;5053935;28;20083;-77
2020/12/08 08:58:12;;;;;;;21.27;14.48;;;;;;;4.36;78.00;99151.97;5052716;28;20055;-78
2020/12/08 09:00:39;;;;;;;21.80;14.00;;;;;;;4.37;76.99;99153.69;5055360;28;20071;-81
2020/12/08 09:03:06;;;;;;;23.30;15.23;;;;;;;4.36;77.30;99147.59;5062505;28;20037;-77
2020/12/08 09:05:33;;;;;;;22.10;14.00;;;;;;;4.41;77.17;99142.13;5064316;28;20081;-76
2020/12/08 09:08:00;;;;;;;21.13;13.75;;;;;;;4.39;76.82;99144.84;5062747;28;20159;-77
2020/12/08 09:10:26;;;;;;;22.85;13.60;;;;;;;4.32;77.61;99140.75;5062668;28;20108;-77
2020/12/08 09:12:53;;;;;;;24.15;14.95;;;;;;;4.31;77.77;99144.28;5070063;28;20060;-78
2020/12/08 09:15:19;;;;;;;21.77;13.68;;;;;;;4.41;77.91;99148.22;5069104;28;20053;-79
2020/12/08 09:17:46;;;;;;;22.10;14.35;;;;;;;4.54;77.93;99145.97;5064016;28;20044;-78
2020/12/08 09:20:13;;;;;;;21.00;14.27;;;;;;;4.59;76.68;99147.44;5044893;28;20060;-76
2020/12/08 09:22:41;;;;;;;20.70;14.02;;;;;;;4.57;76.25;99141.41;5047692;28;20459;-77
2020/12/08 09:25:08;;;;;;;21.27;14.18;;;;;;;4.66;76.51;99137.56;5044937;28;20048;-76
2020/12/08 09:27:35;;;;;;;23.60;14.82;;;;;;;4.72;76.29;99139.09;5053230;28;20072;-75
2020/12/08 09:30:02;;;;;;;22.35;13.77;;;;;;;4.80;75.66;99144.84;5051632;28;20088;-77
2020/12/08 09:32:29;;;;;;;19.45;13.35;;;;;;;4.83;73.96;99144.72;5058940;28;20048;-79
2020/12/08 09:34:55;;;;;;;18.67;13.43;;;;;;;4.85;73.79;99148.97;5063149;28;20121;-80
2020/12/08 09:37:24;;;;;;;18.00;12.20;;;;;;;4.84;73.57;99151.66;5068441;28;20053;-80
2020/12/08 09:39:52;;;;;;;20.58;13.30;;;;;;;4.90;73.71;99156.63;5064525;28;20067;-77
2020/12/08 09:42:19;;;;;;;20.00;13.82;;;;;;;5.02;72.68;99165.75;5061880;28;20180;-78
2020/12/08 09:44:47;;;;;;;18.92;12.82;;;;;;;4.98;72.60;99151.06;5053798;28;20548;-78
2020/12/08 09:47:15;;;;;;;22.05;12.73;;;;;;;4.90;73.70;99156.63;5045843;28;20084;-77
2020/12/08 09:49:46;;;;;;;20.60;13.55;;;;;;;4.88;74.05;99150.59;5046614;28;20049;-77
2020/12/08 09:52:14;;;;;;;19.92;13.10;;;;;;;4.93;73.84;99149.47;5059878;28;20050;-77
2020/12/08 09:54:40;;;;;;;18.23;12.55;;;;;;;4.97;73.55;99144.09;5046713;28;20412;-78
2020/12/08 09:57:07;;;;;;;18.83;13.25;;;;;;;4.99;74.09;99139.66;5046125;28;20092;-79
2020/12/08 09:59:35;;;;;;;20.17;13.48;;;;;;;5.03;72.67;99149.09;5041482;28;20063;-76
2020/12/08 10:02:03;;;;;;;17.60;11.93;;;;;;;5.06;72.36;99154.16;5044512;28;20110;-78
2020/12/08 10:04:31;;;;;;;18.85;12.18;;;;;;;5.06;72.40;99156.78;5047230;28;20061;-78
2020/12/08 10:06:57;;;;;;;17.13;11.82;;;;;;;5.15;70.23;99146.75;5041459;28;20401;-77
2020/12/08 10:09:24;;;;;;;16.95;11.75;;;;;;;5.13;70.28;99150.38;5043959;28;20416;-77
2020/12/08 10:11:50;;;;;;;16.40;11.60;;;;;;;5.16;70.59;99145.84;5044480;28;20404;-76
2020/12/08 10:14:17;;;;;;;15.07;10.68;;;;;;;5.16;69.46;99147.63;5042545;28;20077;-78
2020/12/08 10:16:43;;;;;;;14.85;10.50;;;;;;;5.18;68.44;99141.38;5049477;28;20111;-80
2020/12/08 10:19:10;;;;;;;20.30;11.93;;;;;;;5.13;69.14;99129.38;5055535;28;20051;-79
2020/12/08 10:21:40;;;;;;;17.80;11.73;;;;;;;5.17;69.42;99144.06;5055332;28;20156;-80
2020/12/08 10:24:07;;;;;;;15.02;11.45;;;;;;;5.26;69.06;99141.88;5049919;28;20044;-77
2020/12/08 10:26:36;;;;;;;15.77;11.80;;;;;;;5.36;68.75;99139.66;5044431;28;20052;-77
2020/12/08 10:29:02;;;;;;;18.05;12.23;;;;;;;5.44;68.27;99141.97;5045261;28;20067;-78
2020/12/08 10:31:31;;;;;;;18.25;12.15;;;;;;;5.47;67.33;99139.19;5043638;28;20083;-77
2020/12/08 10:33:58;;;;;;;17.75;12.38;;;;;;;5.46;67.35;99140.13;5041451;28;20049;-80
2020/12/08 10:36:24;;;;;;;18.08;12.13;;;;;;;5.47;67.54;99142.69;5042810;28;20045;-79
2020/12/08 10:38:51;;;;;;;17.10;12.23;;;;;;;5.59;67.37;99128.97;5043903;28;20057;-80
2020/12/08 10:41:20;;;;;;;17.63;12.32;;;;;;;5.55;67.47;99124.78;5041145;28;20052;-78
2020/12/08 10:43:47;;;;;;;18.17;12.00;;;;;;;5.54;67.83;99133.56;5048268;28;20163;-79
2020/12/08 10:46:14;;;;;;;17.58;11.73;;;;;;;5.62;67.32;99141.13;5044359;28;20080;-77
2020/12/08 10:48:41;;;;;;;18.67;11.68;;;;;;;5.67;67.27;99135.66;5039329;28;20103;-78
2020/12/08 10:51:07;;;;;;;16.83;12.40;;;;;;;5.66;67.12;99137.44;5046332;28;20051;-80
2020/12/08 10:53:34;;;;;;;16.90;11.65;;;;;;;5.63;67.13;99135.78;5048728;28;20045;-77
2020/12/08 10:56:01;;;;;;;18.85;11.70;;;;;;;5.63;66.99;99134.94;5048001;28;20046;-78
2020/12/08 10:58:27;;;;;;;18.38;12.57;;;;;;;5.70;66.92;99138.09;5046942;28;20638;-79
2020/12/08 11:00:53;;;;;;;17.90;11.63;;;;;;;5.53;67.09;99125.78;5045828;28;20095;-78
2020/12/08 11:03:20;;;;;;;16.90;12.00;;;;;;;5.58;67.77;99136.91;5050568;28;20052;-78
2020/12/08 11:05:47;;;;;;;17.88;12.32;;;;;;;5.53;67.68;99136.28;5044346;28;20399;-80
2020/12/08 11:08:14;;;;;;;17.98;12.23;;;;;;;5.54;66.91;99141.47;5036373;28;20045;-78
2020/12/08 11:10:41;;;;;;;18.35;11.88;;;;;;;5.60;67.24;99143.81;5047204;28;20488;-77
2020/12/08 11:13:08;;;;;;;16.55;12.13;;;;;;;5.57;67.06;99124.72;5044050;28;20049;-79
2020/12/08 11:15:35;;;;;;;17.52;12.18;;;;;;;5.58;67.68;99118.53;5051459;28;20476;-77
2020/12/08 11:18:01;;;;;;;17.77;12.65;;;;;;;5.59;67.34;99121.09;5046275;28;20108;-77
2020/12/08 11:20:28;;;;;;;16.00;11.75;;;;;;;5.63;67.31;99111.31;5043556;28;20059;-77
2020/12/08 11:22:54;;;;;;;17.38;11.82;;;;;;;5.60;67.36;99100.94;5048076;28;20516;-77
2020/12/08 11:25:21;;;;;;;19.25;12.68;;;;;;;5.55;67.69;99087.16;5055517;28;20144;-77
2020/12/08 11:27:49;;;;;;;18.95;11.88;;;;;;;5.51;67.67;99090.88;5049712;28;20067;-77
2020/12/08 11:30:15;;;;;;;18.27;13.23;;;;;;;5.48;68.43;99107.63;5048490;28;20052;-77